createdAt,value
2022-11-22T00:02:15.003Z,93709.44
2022-11-22T00:04:43.406Z,93704.66
2022-11-22T00:07:11.915Z,93700.66
2022-11-22T00:09:40.739Z,93686.66
2022-11-22T00:12:09.299Z,93655.84
2022-11-22T00:14:37.753Z,93697.44
2022-11-22T00:17:07.613Z,93696.13
2022-11-22T00:19:39.503Z,93691.09
2022-11-22T00:22:08.218Z,93424.34
2022-11-22T00:24:36.601Z,93685.75
2022-11-22T00:27:05.037Z,93685.69
2022-11-22T00:29:33.448Z,93681.72
2022-11-22T00:32:01.718Z,93672.97
2022-11-22T00:34:31.565Z,93704.13
2022-11-22T00:36:59.976Z,93675.41
2022-11-22T00:39:28.568Z,93678.59
2022-11-22T00:41:57.231Z,93676.94
2022-11-22T00:44:25.646Z,93664.66
2022-11-22T00:46:54.052Z,93672.13
2022-11-22T00:49:22.327Z,93649.78
2022-11-22T00:51:52.480Z,93641.38
2022-11-22T00:54:20.958Z,93621.66
2022-11-22T00:56:49.367Z,93650.81
2022-11-22T00:59:17.737Z,93649.97
2022-11-22T01:01:46.252Z,93637.47
2022-11-22T01:04:14.588Z,93647.56
2022-11-22T01:06:42.958Z,93634.28
2022-11-22T01:09:18.219Z,93604.09
2022-11-22T01:11:46.645Z,93610.47
2022-11-22T01:14:17.132Z,93633.25
2022-11-22T01:16:45.636Z,93621.25
2022-11-22T01:19:14.914Z,93629.44
2022-11-22T01:21:43.424Z,93329.41
2022-11-22T01:24:13.791Z,93629.78
2022-11-22T01:26:42.790Z,93636.66
2022-11-22T01:29:11.556Z,93632.69
2022-11-22T01:31:39.985Z,93595.09
2022-11-22T01:34:08.401Z,93626.66
2022-11-22T01:36:36.677Z,93609.84
2022-11-22T01:39:05.154Z,93636.34
2022-11-22T01:41:35.008Z,93645.41
2022-11-22T01:44:19.580Z,93635.78
2022-11-22T01:46:52.809Z,93634.72
2022-11-22T01:49:29.009Z,93632.56
2022-11-22T01:52:03.877Z,93622.22
2022-11-22T01:54:37.060Z,93628.59
2022-11-22T01:57:09.382Z,93637.94
2022-11-22T01:59:41.246Z,93601.03
2022-11-22T02:02:09.810Z,93639.88
2022-11-22T02:04:39.240Z,93641.69
2022-11-22T02:07:14.113Z,93658.16
2022-11-22T02:09:44.784Z,93632.63
2022-11-22T02:12:16.457Z,93641.13
2022-11-22T02:14:45.590Z,93635.00
2022-11-22T02:17:14.038Z,93624.59
2022-11-22T02:19:44.992Z,93620.84
2022-11-22T02:22:23.318Z,93630.16
2022-11-22T02:24:56.957Z,93625.09
2022-11-22T02:27:26.836Z,93566.28
2022-11-22T02:29:55.116Z,93614.00
2022-11-22T02:32:23.469Z,93618.22
2022-11-22T02:34:53.126Z,93617.22
2022-11-22T02:37:26.904Z,93575.25
2022-11-22T02:39:58.528Z,93615.72
2022-11-22T02:42:31.827Z,93620.38
2022-11-22T02:45:00.194Z,93609.91
2022-11-22T02:47:28.883Z,93616.59
2022-11-22T02:49:57.147Z,93563.09
2022-11-22T02:52:25.545Z,93615.28
2022-11-22T02:54:53.906Z,93621.41
2022-11-22T02:57:22.273Z,93603.94
2022-11-22T02:59:52.016Z,93615.28
2022-11-22T03:02:20.394Z,93611.31
2022-11-22T03:04:48.753Z,93613.13
2022-11-22T03:07:18.468Z,93614.72
2022-11-22T03:09:46.959Z,93586.00
2022-11-22T03:12:15.354Z,93616.53
2022-11-22T03:14:44.463Z,93594.97
2022-11-22T03:17:14.652Z,93610.78
2022-11-22T03:19:42.975Z,93618.75
2022-11-22T03:22:11.688Z,93632.06
2022-11-22T03:24:40.156Z,93625.63
2022-11-22T03:27:08.586Z,93608.13
2022-11-22T03:29:36.866Z,93627.00
2022-11-22T03:32:05.615Z,93613.25
2022-11-22T03:34:35.470Z,93638.19
2022-11-22T03:37:03.847Z,93643.72
2022-11-22T03:39:32.318Z,93642.72
2022-11-22T03:42:00.845Z,93634.19
2022-11-22T03:44:29.327Z,93561.13
2022-11-22T03:46:57.610Z,93627.81
2022-11-22T03:49:26.012Z,93623.78
2022-11-22T03:51:56.043Z,93638.41
2022-11-22T03:54:24.801Z,93640.00
2022-11-22T03:56:53.207Z,93648.50
2022-11-22T03:59:21.528Z,93651.47
2022-11-22T04:01:49.961Z,93649.28
2022-11-22T04:04:18.780Z,93653.03
2022-11-22T04:06:47.098Z,93635.78
2022-11-22T04:09:16.946Z,93657.59
2022-11-22T04:11:45.337Z,93653.31
2022-11-22T04:14:31.227Z,93636.44
2022-11-22T04:16:59.629Z,93626.56
2022-11-22T04:19:28.234Z,93659.91
2022-11-22T04:21:55.841Z,93553.44
2022-11-22T04:24:43.396Z,93658.28
2022-11-22T04:27:11.830Z,93656.41
2022-11-22T04:29:40.201Z,93658.75
2022-11-22T04:32:27.557Z,93653.19
2022-11-22T04:34:56.218Z,93658.53
2022-11-22T04:37:24.573Z,93657.97
2022-11-22T04:39:54.304Z,93656.88
2022-11-22T04:42:39.890Z,93662.19
2022-11-22T04:45:09.911Z,93635.97
2022-11-22T04:47:55.524Z,93671.22
2022-11-22T04:50:41.267Z,93572.72
2022-11-22T04:53:10.220Z,93668.84
2022-11-22T04:55:40.422Z,93671.22
2022-11-22T04:58:08.960Z,93654.00
2022-11-22T05:00:37.693Z,93637.81
2022-11-22T05:03:06.796Z,93666.41
2022-11-22T05:05:37.100Z,93666.38
2022-11-22T05:08:07.268Z,93557.78
2022-11-22T05:10:50.023Z,93667.50
2022-11-22T05:13:20.864Z,93673.75
2022-11-22T05:15:51.438Z,93680.19
2022-11-22T05:18:20.055Z,93686.00
2022-11-22T05:20:48.672Z,93697.78
2022-11-22T05:23:34.416Z,93690.06
2022-11-22T05:26:03.200Z,93685.59
2022-11-22T05:28:34.303Z,93687.94
2022-11-22T05:31:08.246Z,93681.88
2022-11-22T05:33:39.130Z,93678.94
2022-11-22T05:36:08.780Z,93671.72
2022-11-22T05:38:37.960Z,93637.63
2022-11-22T05:41:07.963Z,93681.88
2022-11-22T05:43:39.142Z,93686.66
2022-11-22T05:46:09.632Z,93689.88
2022-11-22T05:48:38.966Z,93687.44
2022-11-22T05:51:09.555Z,93693.03
2022-11-22T05:53:40.016Z,93690.34
2022-11-22T05:56:08.869Z,93686.00
2022-11-22T05:58:39.617Z,93692.47
2022-11-22T06:01:09.588Z,93695.16
2022-11-22T06:03:38.372Z,93699.16
2022-11-22T06:06:08.275Z,93692.47
2022-11-22T06:08:38.919Z,93693.47
2022-11-22T06:11:08.516Z,93702.59
2022-11-22T06:13:39.998Z,93703.69
2022-11-22T06:16:10.052Z,93708.75
2022-11-22T06:18:38.868Z,93711.06
2022-11-22T06:21:08.859Z,93707.97
2022-11-22T06:23:37.636Z,93715.16
2022-11-22T06:26:08.750Z,93711.19
2022-11-22T06:28:40.007Z,93704.41
2022-11-22T06:31:10.082Z,93726.66
2022-11-22T06:33:39.255Z,93728.31
2022-11-22T06:36:09.775Z,93719.34
2022-11-22T06:38:38.448Z,93736.81
2022-11-22T06:41:08.889Z,93720.53
2022-11-22T06:43:46.689Z,93722.69
2022-11-22T06:46:17.717Z,93710.09
2022-11-22T06:48:46.134Z,93725.00
2022-11-22T06:51:16.517Z,93731.44
2022-11-22T06:53:48.192Z,93736.81
2022-11-22T06:56:19.281Z,93727.78
2022-11-22T06:58:50.088Z,93736.50
2022-11-22T07:01:21.076Z,93734.84
2022-11-22T07:03:50.482Z,93757.50
2022-11-22T07:06:20.589Z,93765.53
2022-11-22T07:08:49.791Z,93765.63
2022-11-22T07:11:20.010Z,93770.84
2022-11-22T07:13:50.925Z,93774.13
2022-11-22T07:16:21.711Z,93775.75
2022-11-22T07:18:50.827Z,93785.88
2022-11-22T07:21:20.717Z,93781.00
2022-11-22T07:23:51.802Z,93784.47
2022-11-22T07:26:21.442Z,93782.56
2022-11-22T07:28:51.336Z,93786.28
2022-11-22T07:31:20.356Z,93732.16
2022-11-22T07:33:49.340Z,93779.09
2022-11-22T07:36:19.434Z,93808.84
2022-11-22T07:38:48.831Z,93776.81
2022-11-22T07:41:18.947Z,93818.50
2022-11-22T07:43:47.600Z,93790.63
2022-11-22T07:46:23.234Z,93811.25
2022-11-22T07:48:51.804Z,93836.00
2022-11-22T07:51:21.037Z,93826.69
2022-11-22T07:53:49.353Z,93828.25
2022-11-22T07:56:18.842Z,93829.81
2022-11-22T07:58:47.235Z,93819.09
2022-11-22T08:01:17.523Z,93818.66
2022-11-22T08:03:47.720Z,93814.13
2022-11-22T08:06:16.195Z,93834.13
2022-11-22T08:08:44.989Z,93822.22
2022-11-22T08:11:13.731Z,93777.72
2022-11-22T08:13:42.629Z,93846.97
2022-11-22T08:16:13.206Z,93849.88
2022-11-22T08:18:42.490Z,93850.94
2022-11-22T08:21:14.517Z,93865.56
2022-11-22T08:23:44.195Z,93837.94
2022-11-22T08:26:14.676Z,93845.41
2022-11-22T08:28:44.067Z,93874.53
2022-11-22T08:31:15.618Z,93886.25
2022-11-22T08:33:44.384Z,93838.41
2022-11-22T08:36:14.349Z,93873.91
2022-11-22T08:38:43.261Z,93876.03
2022-11-22T08:41:12.666Z,93864.91
2022-11-22T08:43:41.070Z,93896.75
2022-11-22T08:46:09.431Z,93904.19
2022-11-22T08:48:38.770Z,93902.03
2022-11-22T08:51:09.513Z,93908.72
2022-11-22T08:53:41.344Z,93920.69
2022-11-22T08:56:12.774Z,93918.03
2022-11-22T08:58:41.912Z,93920.66
2022-11-22T09:01:13.269Z,93917.47
2022-11-22T09:03:43.083Z,93911.84
2022-11-22T09:09:29.888Z,93921.91
2022-11-22T09:11:51.864Z,93840.44
2022-11-22T09:14:20.803Z,93890.41
2022-11-22T09:16:49.552Z,93917.69
2022-11-22T09:19:18.307Z,93926.22
2022-11-22T09:21:46.635Z,93935.50
2022-11-22T09:24:17.186Z,93904.69
2022-11-22T09:26:45.538Z,93889.84
2022-11-22T09:29:14.444Z,93934.31
2022-11-22T09:31:42.931Z,93936.97
2022-11-22T09:34:11.229Z,93938.53
2022-11-22T09:36:39.633Z,93944.38
2022-11-22T09:39:08.010Z,93944.63
2022-11-22T09:42:05.621Z,93881.13
2022-11-22T09:44:46.578Z,93945.38
2022-11-22T09:47:29.744Z,93950.66
2022-11-22T09:50:06.921Z,93933.66
2022-11-22T09:52:41.628Z,93930.97
2022-11-22T09:55:21.382Z,93931.00
2022-11-22T09:58:07.633Z,93923.00
2022-11-22T10:00:36.820Z,93885.13
2022-11-22T10:03:17.124Z,93921.41
2022-11-22T10:05:51.137Z,93908.69
2022-11-22T10:08:31.187Z,93879.47
2022-11-22T10:11:02.529Z,93898.81
2022-11-22T10:13:37.383Z,93920.75
2022-11-22T10:16:13.219Z,93928.19
2022-11-22T10:18:45.469Z,93900.00
2022-11-22T10:21:15.981Z,93901.63
2022-11-22T10:23:46.145Z,93901.63
2022-11-22T10:26:23.671Z,93915.25
2022-11-22T10:29:08.579Z,93909.63
2022-11-22T10:31:45.977Z,93908.38
2022-11-22T10:34:25.230Z,93910.50
2022-11-22T10:37:01.904Z,93908.22
2022-11-22T10:39:57.110Z,93917.06
2022-11-22T10:42:42.609Z,93912.69
2022-11-22T10:45:19.689Z,93878.59
2022-11-22T10:48:02.548Z,93914.53
2022-11-22T10:50:38.345Z,93916.88
2022-11-22T10:53:18.072Z,93911.97
2022-11-22T10:55:57.385Z,93876.47
2022-11-22T10:58:36.720Z,93909.00
2022-11-22T11:01:15.556Z,93909.72
2022-11-22T11:03:47.794Z,93853.66
2022-11-22T11:06:26.618Z,93907.22
2022-11-22T11:11:56.557Z,93920.38
2022-11-22T11:14:31.270Z,93925.06
2022-11-22T11:17:02.891Z,93923.91
2022-11-22T11:19:35.232Z,93894.41
2022-11-22T11:22:30.498Z,93904.59
2022-11-22T11:25:28.940Z,93904.00
2022-11-22T11:28:00.453Z,93895.94
2022-11-22T11:30:28.909Z,93893.16
2022-11-22T11:32:58.752Z,93879.28
2022-11-22T11:35:29.659Z,93838.56
2022-11-22T11:37:58.292Z,93887.72
2022-11-22T11:40:31.815Z,93896.19
2022-11-22T11:43:17.262Z,93900.97
2022-11-22T11:45:45.830Z,93901.75
2022-11-22T11:48:28.589Z,93896.47
2022-11-22T11:51:22.535Z,93898.47
2022-11-22T11:53:59.501Z,93903.59
2022-11-22T11:56:47.924Z,93789.69
2022-11-22T11:59:19.734Z,93903.47
2022-11-22T12:01:56.606Z,93872.34
2022-11-22T12:04:31.765Z,93907.47
2022-11-22T12:07:05.310Z,93912.00
2022-11-22T12:09:36.858Z,93909.19
2022-11-22T12:12:24.786Z,93916.69
2022-11-22T12:15:11.175Z,93918.94
2022-11-22T12:17:49.534Z,93924.06
2022-11-22T12:20:24.091Z,93914.44
2022-11-22T12:23:02.510Z,93916.03
2022-11-22T12:25:35.967Z,93921.97
2022-11-22T12:28:11.089Z,93921.31
2022-11-22T12:30:42.782Z,93914.31
2022-11-22T12:33:20.715Z,93932.66
2022-11-22T12:35:55.648Z,93931.50
2022-11-22T12:38:29.413Z,93926.75
2022-11-22T12:41:00.054Z,93931.81
2022-11-22T12:43:33.326Z,93917.28
2022-11-22T12:46:06.497Z,93886.53
2022-11-22T12:48:45.865Z,93915.59
2022-11-22T12:51:26.727Z,93871.81
2022-11-22T12:54:01.037Z,93901.50
2022-11-22T12:56:33.958Z,93900.56
2022-11-22T12:59:08.315Z,93896.38
2022-11-22T13:01:44.177Z,93897.97
2022-11-22T13:04:20.470Z,93890.53
2022-11-22T13:06:59.114Z,93888.00
2022-11-22T13:09:33.644Z,93898.56
2022-11-22T13:12:06.804Z,93897.03
2022-11-22T13:14:38.932Z,93900.41
2022-11-22T13:17:09.079Z,93890.75
2022-11-22T13:19:46.982Z,93876.56
2022-11-22T13:22:23.961Z,93868.25
2022-11-22T13:25:09.559Z,93887.03
2022-11-22T13:27:44.500Z,93887.53
2022-11-22T13:30:20.347Z,93860.16
2022-11-22T13:32:52.350Z,93884.44
2022-11-22T13:35:39.520Z,93883.72
2022-11-22T13:38:16.275Z,93891.03
2022-11-22T13:40:46.614Z,93837.38
2022-11-22T13:43:49.546Z,93864.88
2022-11-22T13:47:03.663Z,93868.25
2022-11-22T13:49:41.211Z,93877.13
2022-11-22T13:52:35.091Z,93884.06
2022-11-22T13:55:34.874Z,93876.47
2022-11-22T13:58:54.748Z,93883.56
2022-11-22T14:01:48.575Z,93884.31
2022-11-22T14:04:22.803Z,93891.53
2022-11-22T14:06:53.360Z,93884.31
2022-11-22T14:09:40.352Z,93878.16
2022-11-22T14:12:32.516Z,93881.91
2022-11-22T14:15:22.253Z,93887.78
2022-11-22T14:18:01.966Z,93883.03
2022-11-22T14:20:41.485Z,93882.44
2022-11-22T14:23:22.106Z,93821.16
2022-11-22T14:26:14.116Z,93875.53
2022-11-22T14:29:19.948Z,93890.41
2022-11-22T14:31:58.263Z,93893.88
2022-11-22T14:34:29.385Z,93900.63
2022-11-22T14:37:36.553Z,93903.53
2022-11-22T14:40:16.109Z,93864.69
2022-11-22T14:42:52.451Z,93779.13
2022-11-22T14:45:25.486Z,93900.16
2022-11-22T14:48:03.168Z,93910.38
2022-11-22T14:50:38.705Z,93904.06
2022-11-22T14:53:20.275Z,93903.53
2022-11-22T14:55:49.696Z,93909.69
2022-11-22T14:58:24.888Z,93914.78
2022-11-22T15:01:15.068Z,93854.28
2022-11-22T15:09:11.059Z,93931.16
2022-11-22T15:09:11.235Z,93936.50
2022-11-22T15:10:22.789Z,93941.28
2022-11-22T15:13:09.364Z,93936.25
2022-11-22T15:57:34.601Z,93983.09
2022-11-22T16:00:03.218Z,93957.50
2022-11-22T16:02:33.274Z,93960.44
2022-11-22T16:06:08.913Z,93980.69
2022-11-22T16:07:53.999Z,93902.09
2022-11-22T16:10:25.527Z,93962.91
2022-11-22T16:12:54.656Z,93984.19
2022-11-22T16:15:29.953Z,93977.00
2022-11-22T16:18:08.072Z,93972.03
2022-11-22T16:20:37.500Z,93993.03
2022-11-22T16:23:19.982Z,93995.13
2022-11-22T16:25:51.711Z,93996.22
2022-11-22T16:28:35.451Z,93990.91
2022-11-22T16:31:17.584Z,93996.22
2022-11-22T16:33:46.274Z,94004.19
2022-11-22T16:36:17.643Z,93989.78
2022-11-22T16:38:46.647Z,93940.13
2022-11-22T16:41:21.381Z,93990.84
2022-11-22T16:43:51.156Z,93985.81
2022-11-22T16:46:19.563Z,93990.34
2022-11-22T16:48:48.702Z,93993.25
2022-11-22T16:51:21.785Z,93976.81
2022-11-22T16:53:51.918Z,94001.56
2022-11-22T16:56:24.303Z,94001.84
2022-11-22T16:58:53.783Z,93976.06
2022-11-22T17:01:24.264Z,94009.84
2022-11-22T17:03:55.113Z,94001.56
2022-11-22T17:06:25.115Z,94011.47
2022-11-22T17:08:55.930Z,94002.69
2022-11-22T17:11:28.036Z,94010.94
2022-11-22T17:13:56.456Z,94001.63
2022-11-22T17:16:24.904Z,94014.41
2022-11-22T17:18:54.305Z,94025.03
2022-11-22T17:21:30.204Z,94014.38
2022-11-22T17:24:02.932Z,93991.31
2022-11-22T17:26:35.036Z,93991.25
2022-11-22T17:29:03.585Z,94022.88
2022-11-22T17:31:32.985Z,94007.34
2022-11-22T17:34:01.398Z,94016.41
2022-11-22T17:36:31.594Z,93998.38
2022-11-22T17:39:01.673Z,93992.09
2022-11-22T17:41:30.565Z,94018.28
2022-11-22T17:44:01.324Z,94021.75
2022-11-22T17:46:31.423Z,94021.75
2022-11-22T17:49:02.202Z,94036.50
2022-11-22T17:51:31.876Z,94041.78
2022-11-22T17:54:01.034Z,94032.19
2022-11-22T17:56:30.859Z,94028.25
2022-11-22T17:59:01.110Z,94035.66
2022-11-22T18:01:30.540Z,94037.78
2022-11-22T18:03:59.165Z,94048.50
2022-11-22T18:06:29.406Z,93975.41
2022-11-22T18:08:58.041Z,94038.44
2022-11-22T18:11:26.677Z,94029.81
2022-11-22T18:13:55.339Z,93982.88
2022-11-22T18:16:29.592Z,94037.28
2022-11-22T18:18:59.392Z,94040.50
2022-11-22T18:21:29.545Z,94040.28
2022-11-22T18:23:59.080Z,94038.97
2022-11-22T18:26:43.962Z,94043.72
2022-11-22T18:32:04.776Z,94046.34
2022-11-22T18:34:33.300Z,94017.88
2022-11-22T18:37:03.839Z,94050.31
2022-11-22T18:39:35.862Z,94051.13
2022-11-22T18:42:05.064Z,94058.59
2022-11-22T18:44:34.847Z,94054.56
2022-11-22T18:47:04.984Z,94051.66
2022-11-22T18:49:33.808Z,94048.69
2022-11-22T18:52:02.537Z,94034.31
2022-11-22T18:54:31.399Z,94045.75
2022-11-22T18:57:00.259Z,94035.38
2022-11-22T18:59:28.755Z,94042.03
2022-11-22T19:01:57.081Z,94049.50
2022-11-22T19:04:26.860Z,94034.53
2022-11-22T19:06:56.298Z,94042.53
2022-11-22T19:09:24.928Z,94050.28
2022-11-22T19:11:58.367Z,94036.13
2022-11-22T19:14:29.174Z,94028.72
2022-11-22T19:16:58.514Z,94007.72
2022-11-22T19:19:32.338Z,94026.09
2022-11-22T19:22:00.854Z,94042.09
2022-11-22T19:24:29.926Z,94039.13
2022-11-22T19:26:58.531Z,93980.69
2022-11-22T19:29:27.150Z,94030.28
2022-11-22T19:31:55.600Z,94036.75
2022-11-22T19:34:24.170Z,94041.53
2022-11-22T19:36:54.010Z,93926.13
2022-11-22T19:39:22.332Z,94016.53
2022-11-22T19:41:50.979Z,93983.59
2022-11-22T19:44:19.381Z,94042.66
2022-11-22T19:46:47.723Z,94035.72
2022-11-22T19:49:16.074Z,94049.91
2022-11-22T19:51:44.427Z,94043.25
2022-11-22T19:54:14.202Z,94025.38
2022-11-22T19:56:42.868Z,94029.31
2022-11-22T19:59:15.768Z,94029.41
2022-11-22T20:01:44.621Z,94006.28
2022-11-22T20:04:16.003Z,94017.63
2022-11-22T20:06:49.754Z,94044.56
2022-11-22T20:09:20.356Z,94031.28
2022-11-22T20:11:49.011Z,94043.28
2022-11-22T20:14:17.410Z,94048.38
2022-11-22T20:16:45.877Z,94052.09
2022-11-22T20:19:15.420Z,94039.59
2022-11-22T20:21:43.830Z,94060.63
2022-11-22T20:24:13.399Z,94054.50
2022-11-22T20:26:44.225Z,94050.28
2022-11-22T20:29:14.528Z,94047.56
2022-11-22T20:31:43.121Z,94060.41
2022-11-22T20:34:11.934Z,94056.69
2022-11-22T20:36:40.236Z,94059.03
2022-11-22T20:39:10.681Z,94063.03
2022-11-22T20:41:40.287Z,93970.31
2022-11-22T20:44:14.295Z,94040.69
2022-11-22T20:46:43.229Z,94072.84
2022-11-22T20:49:11.708Z,94082.22
2022-11-22T20:51:40.361Z,94077.47
2022-11-22T20:54:09.610Z,94091.28
2022-11-22T20:56:39.237Z,94071.03
2022-11-22T20:59:07.732Z,94112.59
2022-11-22T21:01:38.536Z,94079.81
2022-11-22T21:04:07.167Z,94106.69
2022-11-22T21:06:35.562Z,94116.31
2022-11-22T21:09:04.177Z,94111.22
2022-11-22T21:11:32.767Z,94107.22
2022-11-22T21:14:01.227Z,94098.66
2022-11-22T21:16:31.506Z,94102.66
2022-11-22T21:19:02.854Z,94116.25
2022-11-22T21:21:32.163Z,94113.56
2022-11-22T21:24:02.325Z,94109.31
2022-11-22T21:26:30.979Z,94112.75
2022-11-22T21:28:59.885Z,94112.00
2022-11-22T21:31:29.328Z,94097.09
2022-11-22T21:33:58.005Z,94102.94
2022-11-22T21:36:27.800Z,94101.03
2022-11-22T21:38:56.200Z,94107.16
2022-11-22T21:41:39.447Z,94107.91
2022-11-22T21:44:09.075Z,94110.69
2022-11-22T21:46:37.512Z,94115.72
2022-11-22T21:49:06.164Z,94122.63
2022-11-22T21:51:36.075Z,94127.16
2022-11-22T21:54:04.885Z,94090.72
2022-11-22T21:56:33.364Z,94133.84
2022-11-22T21:59:01.924Z,94093.72
2022-11-22T22:01:30.346Z,94141.03
2022-11-22T22:03:58.776Z,94145.59
2022-11-22T22:06:27.173Z,94146.94
2022-11-22T22:08:56.988Z,94137.63
2022-11-22T22:11:25.352Z,94144.28
2022-11-22T22:13:55.350Z,94143.44
2022-11-22T22:16:26.136Z,94138.63
2022-11-22T22:18:54.959Z,94142.66
2022-11-22T22:21:23.399Z,94149.59
2022-11-22T22:23:51.745Z,94137.84
2022-11-22T22:26:21.726Z,94130.63
2022-11-22T22:28:50.105Z,94140.00
2022-11-22T22:31:21.975Z,94139.19
2022-11-22T22:33:51.827Z,94100.56
2022-11-22T22:36:20.711Z,94147.19
2022-11-22T22:38:49.352Z,94126.41
2022-11-22T22:41:18.301Z,94144.53
2022-11-22T22:43:49.657Z,94164.81
2022-11-22T22:46:20.360Z,94146.66
2022-11-22T22:48:49.174Z,94150.66
2022-11-22T22:51:19.799Z,94149.88
2022-11-22T22:53:48.716Z,94133.69
2022-11-22T22:56:19.210Z,94130.13
2022-11-22T22:58:49.927Z,94154.09
2022-11-22T23:01:20.181Z,94146.63
2022-11-22T23:03:49.926Z,94132.84
2022-11-22T23:06:18.831Z,94157.88
2022-11-22T23:08:49.347Z,94145.13
2022-11-22T23:11:19.579Z,94158.09
2022-11-22T23:13:49.348Z,94155.19
2022-11-22T23:16:17.708Z,94150.66
2022-11-22T23:18:46.629Z,94148.81
2022-11-22T23:21:16.781Z,94143.50
2022-11-22T23:23:45.174Z,94081.22
2022-11-22T23:26:15.059Z,94083.88
2022-11-22T23:28:43.991Z,94153.56
2022-11-22T23:31:16.004Z,94159.19
2022-11-22T23:33:45.349Z,94156.22
2022-11-22T23:36:15.944Z,94124.88
2022-11-22T23:38:44.792Z,94161.25
2022-11-22T23:41:14.403Z,94138.34
2022-11-22T23:43:43.275Z,94173.25
2022-11-22T23:46:16.345Z,94162.88
2022-11-22T23:48:45.225Z,94160.22
2022-11-22T23:51:13.836Z,94158.84
2022-11-22T23:53:42.428Z,94165.53
2022-11-22T23:56:12.613Z,94167.41
2022-11-22T23:58:41.441Z,94169.03
